createdAt,value
2019-05-28T00:00:01.875Z,0.00
2019-05-28T00:00:52.327Z,0.00
2019-05-28T00:01:52.353Z,0.00
2019-05-28T00:02:52.400Z,0.00
2019-05-28T00:03:52.404Z,0.00
2019-05-28T00:04:52.426Z,0.00
2019-05-28T00:05:52.450Z,0.00
2019-05-28T00:06:52.478Z,0.00
2019-05-28T00:07:52.508Z,0.00
2019-05-28T00:08:52.533Z,0.00
2019-05-28T00:09:52.552Z,0.00
2019-05-28T00:10:52.580Z,0.00
2019-05-28T00:11:52.606Z,0.00
2019-05-28T00:12:52.631Z,0.00
2019-05-28T00:13:52.658Z,0.00
2019-05-28T00:14:52.694Z,0.00
2019-05-28T00:15:52.709Z,0.00
2019-05-28T00:16:52.735Z,0.00
2019-05-28T00:17:52.761Z,0.00
2019-05-28T00:18:52.786Z,0.00
2019-05-28T00:19:52.811Z,0.00
2019-05-28T00:20:52.853Z,0.00
2019-05-28T00:21:52.862Z,0.00
2019-05-28T00:22:52.922Z,0.00
2019-05-28T00:23:52.917Z,0.00
2019-05-28T00:24:52.940Z,0.00
2019-05-28T00:25:52.963Z,0.00
2019-05-28T00:26:52.989Z,0.00
2019-05-28T00:27:53.097Z,0.00
2019-05-28T00:28:53.042Z,0.00
2019-05-28T00:29:53.082Z,0.00
2019-05-28T00:30:53.094Z,0.00
2019-05-28T00:31:53.119Z,0.00
2019-05-28T00:32:53.146Z,0.00
2019-05-28T00:33:53.172Z,0.00
2019-05-28T00:34:53.195Z,0.00
2019-05-28T00:35:53.225Z,4.00
2019-05-28T00:36:53.250Z,4.00
2019-05-28T00:37:53.272Z,4.00
2019-05-28T00:38:53.364Z,4.00
2019-05-28T00:39:53.329Z,4.00
2019-05-28T00:40:53.351Z,4.00
2019-05-28T00:41:53.377Z,4.00
2019-05-28T00:42:53.404Z,4.00
2019-05-28T00:43:53.429Z,4.00
2019-05-28T00:44:53.461Z,4.00
2019-05-28T00:45:53.480Z,4.00
2019-05-28T00:46:53.506Z,4.00
2019-05-28T00:47:53.531Z,0.00
2019-05-28T00:48:53.557Z,4.00
2019-05-28T00:49:53.581Z,4.00
2019-05-28T00:50:53.610Z,4.00
2019-05-28T00:51:53.637Z,4.00
2019-05-28T00:52:53.660Z,4.00
2019-05-28T00:53:53.684Z,4.00
2019-05-28T00:54:53.710Z,4.00
2019-05-28T00:55:53.737Z,4.00
2019-05-28T00:56:53.802Z,8.00
2019-05-28T00:57:53.788Z,8.00
2019-05-28T00:58:53.812Z,8.00
2019-05-28T00:59:53.840Z,8.00
2019-05-28T01:00:53.865Z,8.00
2019-05-28T01:01:53.983Z,4.00
2019-05-28T01:02:53.916Z,4.00
2019-05-28T01:03:53.942Z,4.00
2019-05-28T01:04:53.971Z,8.00
2019-05-28T01:05:53.995Z,8.00
2019-05-28T01:06:54.082Z,8.00
2019-05-28T01:07:54.057Z,8.00
2019-05-28T01:08:54.107Z,8.00
2019-05-28T01:09:54.095Z,8.00
2019-05-28T01:10:54.121Z,8.00
2019-05-28T01:11:54.147Z,8.00
2019-05-28T01:12:54.172Z,8.00
2019-05-28T01:13:54.203Z,8.00
2019-05-28T01:14:54.222Z,12.00
2019-05-28T01:15:54.255Z,8.00
2019-05-28T01:16:54.277Z,8.00
2019-05-28T01:17:54.317Z,8.00
2019-05-28T01:18:54.390Z,8.00
2019-05-28T01:19:54.352Z,8.00
2019-05-28T01:20:54.379Z,8.00
2019-05-28T01:21:54.402Z,12.00
2019-05-28T01:22:54.429Z,12.00
2019-05-28T01:23:54.456Z,12.00
2019-05-28T01:24:54.532Z,12.00
2019-05-28T01:25:54.506Z,12.00
2019-05-28T01:26:54.531Z,12.00
2019-05-28T01:27:54.567Z,12.00
2019-05-28T01:28:54.584Z,12.00
2019-05-28T01:29:54.608Z,16.00
2019-05-28T01:31:00.421Z,12.00
2019-05-28T01:31:54.698Z,12.00
2019-05-28T01:32:54.685Z,12.00
2019-05-28T01:33:54.712Z,16.00
2019-05-28T01:34:54.737Z,12.00
2019-05-28T01:35:54.813Z,12.00
2019-05-28T01:36:54.795Z,16.00
2019-05-28T01:37:54.817Z,16.00
2019-05-28T01:38:54.839Z,16.00
2019-05-28T01:39:54.866Z,20.00
2019-05-28T01:40:54.891Z,20.00
2019-05-28T01:41:54.916Z,16.00
2019-05-28T01:42:55.013Z,20.00
2019-05-28T01:43:54.971Z,16.00
2019-05-28T01:44:54.994Z,20.00
2019-05-28T01:45:55.018Z,20.00
2019-05-28T01:46:55.081Z,20.00
2019-05-28T01:47:57.561Z,20.00
2019-05-28T01:48:55.095Z,24.00
2019-05-28T01:49:55.120Z,24.00
2019-05-28T01:50:55.146Z,24.00
2019-05-28T01:51:55.177Z,24.00
2019-05-28T01:52:55.203Z,24.00
2019-05-28T01:53:55.298Z,24.00
2019-05-28T01:54:55.261Z,24.00
2019-05-28T01:55:55.279Z,20.00
2019-05-28T01:56:55.302Z,16.00
2019-05-28T01:57:55.326Z,16.00
2019-05-28T01:58:55.353Z,20.00
2019-05-28T01:59:55.378Z,20.00
2019-05-28T02:01:11.436Z,16.00
2019-05-28T02:01:55.429Z,20.00
2019-05-28T02:02:55.573Z,20.00
2019-05-28T02:03:55.537Z,16.00
2019-05-28T02:04:55.524Z,20.00
2019-05-28T02:05:55.532Z,20.00
2019-05-28T02:06:55.558Z,20.00
2019-05-28T02:07:55.582Z,16.00
2019-05-28T02:08:55.610Z,16.00
2019-05-28T02:09:55.633Z,16.00
2019-05-28T02:10:55.658Z,16.00
2019-05-28T02:11:55.687Z,12.00
2019-05-28T02:12:55.740Z,16.00
2019-05-28T02:13:55.794Z,12.00
2019-05-28T02:14:55.763Z,12.00
2019-05-28T02:15:55.789Z,12.00
2019-05-28T02:16:55.814Z,16.00
2019-05-28T02:17:55.838Z,16.00
2019-05-28T02:18:55.863Z,16.00
2019-05-28T02:19:55.891Z,16.00
2019-05-28T02:20:55.922Z,16.00
2019-05-28T02:21:55.943Z,16.00
2019-05-28T02:22:55.967Z,16.00
2019-05-28T02:23:55.992Z,16.00
2019-05-28T02:24:56.068Z,16.00
2019-05-28T02:25:56.047Z,16.00
2019-05-28T02:26:56.071Z,16.00
2019-05-28T02:27:56.095Z,20.00
2019-05-28T02:28:56.123Z,20.00
2019-05-28T02:29:56.148Z,20.00
2019-05-28T02:30:56.173Z,20.00
2019-05-28T02:31:56.198Z,20.00
2019-05-28T02:32:56.225Z,24.00
2019-05-28T02:33:56.250Z,20.00
2019-05-28T02:34:56.275Z,20.00
2019-05-28T02:35:56.299Z,20.00
2019-05-28T02:36:56.364Z,20.00
2019-05-28T02:37:56.352Z,20.00
2019-05-28T02:38:56.379Z,20.00
2019-05-28T02:39:56.406Z,20.00
2019-05-28T02:40:56.431Z,20.00
2019-05-28T02:41:56.453Z,24.00
2019-05-28T02:42:56.480Z,20.00
2019-05-28T02:43:56.506Z,24.00
2019-05-28T02:44:56.535Z,24.00
2019-05-28T02:45:56.556Z,24.00
2019-05-28T02:46:56.585Z,24.00
2019-05-28T02:47:56.608Z,24.00
2019-05-28T02:48:56.634Z,24.00
2019-05-28T02:49:56.660Z,20.00
2019-05-28T02:50:56.687Z,20.00
2019-05-28T02:51:56.711Z,24.00
2019-05-28T02:52:56.802Z,20.00
2019-05-28T02:53:56.767Z,24.00
2019-05-28T02:54:56.790Z,24.00
2019-05-28T02:55:56.818Z,24.00
2019-05-28T02:56:56.883Z,24.00
2019-05-28T02:57:56.865Z,24.00
2019-05-28T02:58:56.891Z,28.00
2019-05-28T02:59:56.917Z,28.00
2019-05-28T03:00:56.943Z,28.00
2019-05-28T03:01:56.969Z,28.00
2019-05-28T03:02:56.993Z,32.00
2019-05-28T03:03:57.019Z,32.00
2019-05-28T03:04:57.048Z,36.00
2019-05-28T03:05:57.070Z,36.00
2019-05-28T03:06:57.096Z,40.00
2019-05-28T03:07:57.122Z,40.00
2019-05-28T03:08:57.151Z,40.00
2019-05-28T03:09:57.174Z,40.00
2019-05-28T03:11:03.640Z,40.00
2019-05-28T03:11:57.229Z,40.00
2019-05-28T03:12:57.257Z,36.00
2019-05-28T03:13:57.277Z,40.00
2019-05-28T03:14:57.357Z,32.00
2019-05-28T03:15:57.331Z,36.00
2019-05-28T03:16:57.359Z,36.00
2019-05-28T03:17:57.378Z,36.00
2019-05-28T03:18:57.404Z,32.00
2019-05-28T03:19:57.431Z,28.00
2019-05-28T03:20:57.457Z,28.00
2019-05-28T03:21:57.483Z,28.00
2019-05-28T03:22:57.512Z,28.00
2019-05-28T03:23:57.566Z,28.00
2019-05-28T03:24:57.560Z,24.00
2019-05-28T03:25:57.585Z,24.00
2019-05-28T03:26:57.610Z,24.00
2019-05-28T03:27:57.636Z,24.00
2019-05-28T03:28:57.721Z,28.00
2019-05-28T03:29:57.728Z,32.00
2019-05-28T03:30:57.715Z,36.00
2019-05-28T03:32:12.946Z,36.00
2019-05-28T03:32:57.766Z,48.00
2019-05-28T03:33:57.792Z,48.00
2019-05-28T03:34:57.836Z,48.00
2019-05-28T03:35:57.843Z,48.00
2019-05-28T03:36:57.868Z,52.00
2019-05-28T03:37:57.893Z,48.00
2019-05-28T03:38:57.917Z,56.00
2019-05-28T03:39:57.945Z,52.00
2019-05-28T03:40:57.974Z,52.00
2019-05-28T03:41:58.022Z,52.00
2019-05-28T03:42:58.020Z,48.00
2019-05-28T03:43:58.047Z,48.00
2019-05-28T03:44:58.073Z,48.00
2019-05-28T03:45:58.096Z,48.00
2019-05-28T03:46:58.122Z,56.00
2019-05-28T03:47:58.150Z,60.00
2019-05-28T03:48:58.177Z,68.00
2019-05-28T03:49:58.203Z,68.00
2019-05-28T03:50:58.226Z,72.00
2019-05-28T03:51:58.252Z,68.00
2019-05-28T03:52:58.278Z,76.00
2019-05-28T03:53:58.302Z,84.00
2019-05-28T03:54:58.389Z,88.00
2019-05-28T03:55:58.357Z,84.00
2019-05-28T03:56:58.380Z,88.00
2019-05-28T03:57:58.408Z,104.00
2019-05-28T03:58:58.431Z,88.00
2019-05-28T03:59:58.458Z,100.00
2019-05-28T04:00:58.483Z,84.00
2019-05-28T04:01:58.553Z,76.00
2019-05-28T04:02:58.536Z,80.00
2019-05-28T04:03:58.563Z,68.00
2019-05-28T04:04:58.599Z,72.00
2019-05-28T04:05:58.613Z,68.00
2019-05-28T04:06:58.683Z,72.00
2019-05-28T04:07:58.731Z,80.00
2019-05-28T04:08:58.690Z,72.00
2019-05-28T04:09:58.715Z,80.00
2019-05-28T04:10:58.742Z,100.00
2019-05-28T04:11:58.769Z,88.00
2019-05-28T04:12:58.839Z,120.00
2019-05-28T04:13:58.823Z,120.00
2019-05-28T04:14:58.843Z,128.00
2019-05-28T04:15:58.872Z,124.00
2019-05-28T04:16:58.895Z,152.00
2019-05-28T04:17:58.989Z,140.00
2019-05-28T04:18:58.947Z,120.00
2019-05-28T04:19:58.972Z,132.00
2019-05-28T04:20:59.003Z,152.00
2019-05-28T04:21:59.025Z,140.00
2019-05-28T04:22:59.050Z,128.00
2019-05-28T04:23:59.077Z,128.00
2019-05-28T04:24:59.100Z,148.00
2019-05-28T04:25:59.128Z,148.00
2019-05-28T04:26:59.152Z,160.00
2019-05-28T04:27:59.179Z,148.00
2019-05-28T04:28:59.236Z,148.00
2019-05-28T04:29:59.233Z,132.00
2019-05-28T04:30:59.271Z,140.00
2019-05-28T04:31:59.280Z,144.00
2019-05-28T04:32:59.307Z,132.00
2019-05-28T04:33:59.331Z,112.00
2019-05-28T04:34:59.358Z,116.00
2019-05-28T04:35:59.382Z,96.00
2019-05-28T04:36:59.411Z,108.00
2019-05-28T04:37:59.436Z,144.00
2019-05-28T04:38:59.464Z,124.00
2019-05-28T04:39:59.485Z,132.00
2019-05-28T04:40:59.577Z,144.00
2019-05-28T04:41:59.539Z,136.00
2019-05-28T04:42:59.570Z,124.00
2019-05-28T04:43:59.591Z,112.00
2019-05-28T04:44:59.619Z,108.00
2019-05-28T04:45:59.642Z,120.00
2019-05-28T04:46:59.668Z,120.00
2019-05-28T04:47:59.694Z,132.00
2019-05-28T04:48:59.726Z,132.00
2019-05-28T04:49:59.743Z,160.00
2019-05-28T04:50:59.771Z,156.00
2019-05-28T04:51:59.797Z,144.00
2019-05-28T04:52:59.822Z,148.00
2019-05-28T04:53:59.850Z,160.00
2019-05-28T04:54:59.875Z,180.00
2019-05-28T04:55:59.900Z,188.00
2019-05-28T04:56:59.976Z,196.00
2019-05-28T04:57:59.949Z,212.00
2019-05-28T04:59:03.662Z,232.00
2019-05-28T05:00:00.011Z,240.00
2019-05-28T05:01:00.028Z,248.00
2019-05-28T05:02:00.053Z,236.00
2019-05-28T05:03:00.952Z,228.00
2019-05-28T05:04:00.116Z,236.00
2019-05-28T05:05:00.324Z,232.00
2019-05-28T05:06:00.162Z,228.00
2019-05-28T05:07:00.182Z,236.00
2019-05-28T05:08:00.262Z,244.00
2019-05-28T05:09:00.235Z,252.00
2019-05-28T05:10:00.318Z,256.00
2019-05-28T05:11:00.289Z,264.00
2019-05-28T05:12:00.312Z,268.00
2019-05-28T05:13:00.348Z,280.00
2019-05-28T05:14:00.366Z,296.00
2019-05-28T05:15:00.397Z,312.00
2019-05-28T05:16:00.415Z,376.00
2019-05-28T05:17:00.444Z,436.00
2019-05-28T05:18:00.468Z,404.00
2019-05-28T05:19:00.493Z,416.00
2019-05-28T05:20:00.518Z,516.00
2019-05-28T05:21:00.548Z,464.00
2019-05-28T05:22:00.568Z,428.00
2019-05-28T05:23:00.595Z,484.00
2019-05-28T05:24:00.623Z,620.00
2019-05-28T05:25:00.648Z,680.00
2019-05-28T05:26:00.673Z,1304.00
2019-05-28T05:27:00.706Z,1200.00
2019-05-28T05:28:00.724Z,676.00
2019-05-28T05:29:00.752Z,448.00
2019-05-28T05:30:00.777Z,1344.00
2019-05-28T05:31:00.805Z,648.00
2019-05-28T05:32:00.830Z,908.00
2019-05-28T05:33:18.679Z,656.00
2019-05-28T05:34:00.910Z,916.00
2019-05-28T05:35:00.908Z,816.00
2019-05-28T05:36:00.968Z,1040.00
2019-05-28T05:37:00.958Z,988.00
2019-05-28T05:38:00.984Z,1052.00
2019-05-28T05:39:01.009Z,1128.00
2019-05-28T05:40:01.062Z,1024.00
2019-05-28T05:41:01.062Z,1284.00
2019-05-28T05:42:01.088Z,1240.00
2019-05-28T05:43:01.115Z,1188.00
2019-05-28T05:44:01.139Z,1224.00
2019-05-28T05:45:01.166Z,388.00
2019-05-28T05:46:01.191Z,536.00
2019-05-28T05:47:01.251Z,1080.00
2019-05-28T05:48:01.243Z,228.00
2019-05-28T05:49:01.274Z,252.00
2019-05-28T05:50:01.295Z,264.00
2019-05-28T05:51:01.322Z,220.00
2019-05-28T05:52:01.419Z,864.00
2019-05-28T05:53:01.406Z,244.00
2019-05-28T05:54:01.407Z,192.00
2019-05-28T05:55:01.436Z,276.00
2019-05-28T05:56:01.451Z,304.00
2019-05-28T05:57:01.544Z,492.00
2019-05-28T05:58:01.573Z,1168.00
2019-05-28T05:59:01.528Z,548.00
2019-05-28T06:00:01.556Z,396.00
2019-05-28T06:01:01.636Z,364.00
2019-05-28T06:02:01.607Z,1228.00
2019-05-28T06:03:01.631Z,292.00
2019-05-28T06:04:01.659Z,252.00
2019-05-28T06:05:01.690Z,236.00
2019-05-28T06:06:01.709Z,232.00
2019-05-28T06:07:01.736Z,252.00
2019-05-28T06:08:01.801Z,408.00
2019-05-28T06:09:01.787Z,532.00
2019-05-28T06:10:01.910Z,244.00
2019-05-28T06:11:01.843Z,252.00
2019-05-28T06:12:01.866Z,216.00
2019-05-28T06:13:01.891Z,196.00
2019-05-28T06:14:01.968Z,208.00
2019-05-28T06:15:02.024Z,232.00
2019-05-28T06:16:02.016Z,232.00
2019-05-28T06:17:02.015Z,452.00
2019-05-28T06:18:02.090Z,568.00
2019-05-28T06:19:02.056Z,1048.00
2019-05-28T06:20:02.131Z,1060.00
2019-05-28T06:21:11.859Z,1056.00
2019-05-28T06:22:02.124Z,1064.00
2019-05-28T06:23:02.155Z,504.00
2019-05-28T06:24:02.178Z,728.00
2019-05-28T06:25:02.217Z,1028.00
2019-05-28T06:26:02.231Z,296.00
2019-05-28T06:27:02.255Z,1020.00
2019-05-28T06:28:02.294Z,988.00
2019-05-28T06:29:02.368Z,1012.00
2019-05-28T06:30:02.342Z,1024.00
2019-05-28T06:31:02.358Z,492.00
2019-05-28T06:32:02.386Z,472.00
2019-05-28T06:33:02.490Z,964.00
2019-05-28T06:34:02.442Z,268.00
2019-05-28T06:35:02.464Z,332.00
2019-05-28T06:36:02.492Z,332.00
2019-05-28T06:37:02.521Z,284.00
2019-05-28T06:38:02.615Z,300.00
2019-05-28T06:39:02.680Z,920.00
2019-05-28T06:40:02.605Z,312.00
2019-05-28T06:41:02.623Z,244.00
2019-05-28T06:42:02.647Z,348.00
2019-05-28T06:43:02.674Z,948.00
2019-05-28T06:44:02.707Z,908.00
2019-05-28T06:45:02.741Z,324.00
2019-05-28T06:46:02.751Z,272.00
2019-05-28T06:47:02.779Z,852.00
2019-05-28T06:48:02.805Z,856.00
2019-05-28T06:49:02.834Z,232.00
2019-05-28T06:50:02.919Z,808.00
2019-05-28T06:51:02.919Z,764.00
2019-05-28T06:52:02.947Z,768.00
2019-05-28T06:53:02.937Z,748.00
2019-05-28T06:54:02.983Z,732.00
2019-05-28T06:55:02.988Z,756.00
2019-05-28T06:56:03.012Z,780.00
2019-05-28T06:57:03.038Z,424.00
2019-05-28T06:58:03.063Z,768.00
2019-05-28T06:59:03.153Z,304.00
2019-05-28T07:00:03.119Z,404.00
2019-05-28T07:01:03.759Z,704.00
2019-05-28T07:02:03.245Z,640.00
2019-05-28T07:03:03.198Z,236.00
2019-05-28T07:04:13.367Z,220.00
2019-05-28T07:05:03.248Z,296.00
2019-05-28T07:06:07.280Z,208.00
2019-05-28T07:07:03.300Z,196.00
2019-05-28T07:08:03.446Z,212.00
2019-05-28T07:09:03.353Z,632.00
2019-05-28T07:10:03.378Z,296.00
2019-05-28T07:11:03.404Z,328.00
2019-05-28T07:12:03.433Z,252.00
2019-05-28T07:13:03.459Z,200.00
2019-05-28T07:14:03.484Z,204.00
2019-05-28T07:15:03.525Z,220.00
2019-05-28T07:16:03.534Z,440.00
2019-05-28T07:17:03.604Z,204.00
2019-05-28T07:18:03.635Z,192.00
2019-05-28T07:19:03.673Z,180.00
2019-05-28T07:20:03.642Z,176.00
2019-05-28T07:21:03.675Z,176.00
2019-05-28T07:22:03.695Z,164.00
2019-05-28T07:23:03.719Z,168.00
2019-05-28T07:24:05.160Z,196.00
2019-05-28T07:25:03.770Z,208.00
2019-05-28T07:26:03.797Z,196.00
2019-05-28T07:27:03.849Z,176.00
2019-05-28T07:28:11.166Z,172.00
2019-05-28T07:29:03.878Z,172.00
2019-05-28T07:30:03.915Z,152.00
2019-05-28T07:31:03.928Z,168.00
2019-05-28T07:32:03.957Z,180.00
2019-05-28T07:33:04.525Z,168.00
2019-05-28T07:34:04.010Z,156.00
2019-05-28T07:35:04.033Z,160.00
2019-05-28T07:36:04.059Z,156.00
2019-05-28T07:37:04.095Z,152.00
2019-05-28T07:38:04.110Z,164.00
2019-05-28T07:39:04.137Z,184.00
2019-05-28T07:40:04.197Z,184.00
2019-05-28T07:41:04.191Z,160.00
2019-05-28T07:42:04.233Z,140.00
2019-05-28T07:43:04.242Z,136.00
2019-05-28T07:44:04.275Z,128.00
2019-05-28T07:45:04.306Z,128.00
2019-05-28T07:46:04.320Z,136.00
2019-05-28T07:47:04.347Z,144.00
2019-05-28T07:48:04.382Z,148.00
2019-05-28T07:49:04.438Z,144.00
2019-05-28T07:50:04.423Z,148.00
2019-05-28T07:51:04.452Z,180.00
2019-05-28T07:52:04.593Z,316.00
2019-05-28T07:53:04.505Z,300.00
2019-05-28T07:54:04.537Z,248.00
2019-05-28T07:55:04.558Z,224.00
2019-05-28T07:56:04.644Z,204.00
2019-05-28T07:57:04.615Z,200.00
2019-05-28T07:58:04.634Z,216.00
2019-05-28T07:59:04.701Z,212.00
2019-05-28T08:00:05.759Z,208.00
2019-05-28T08:01:04.713Z,200.00
2019-05-28T08:02:04.739Z,196.00
2019-05-28T08:03:04.767Z,184.00
2019-05-28T08:04:04.800Z,176.00
2019-05-28T08:05:04.819Z,172.00
2019-05-28T08:06:04.887Z,172.00
2019-05-28T08:07:04.874Z,152.00
2019-05-28T08:08:04.896Z,144.00
2019-05-28T08:09:04.940Z,156.00
2019-05-28T08:10:04.950Z,180.00
2019-05-28T08:11:04.978Z,196.00
2019-05-28T08:12:05.002Z,196.00
2019-05-28T08:13:05.092Z,208.00
2019-05-28T08:14:05.053Z,212.00
2019-05-28T08:15:05.081Z,228.00
2019-05-28T08:16:19.374Z,264.00
2019-05-28T08:17:05.136Z,296.00
2019-05-28T08:18:05.159Z,296.00
2019-05-28T08:19:08.735Z,280.00
2019-05-28T08:20:05.222Z,268.00
2019-05-28T08:21:05.237Z,280.00
2019-05-28T08:22:05.295Z,292.00
2019-05-28T08:23:05.290Z,296.00
2019-05-28T08:24:05.318Z,292.00
2019-05-28T08:25:21.910Z,284.00
2019-05-28T08:26:05.406Z,276.00
2019-05-28T08:27:05.397Z,268.00
2019-05-28T08:28:19.414Z,252.00
2019-05-28T08:29:05.448Z,232.00
2019-05-28T08:30:05.472Z,220.00
2019-05-28T08:31:15.528Z,228.00
2019-05-28T08:32:05.525Z,236.00
2019-05-28T08:33:05.554Z,240.00
2019-05-28T08:34:05.640Z,248.00
2019-05-28T08:35:06.443Z,248.00
2019-05-28T08:36:05.629Z,248.00
2019-05-28T08:37:06.769Z,256.00
2019-05-28T08:38:05.698Z,256.00
2019-05-28T08:39:05.737Z,252.00
2019-05-28T08:40:05.749Z,256.00
2019-05-28T08:41:05.762Z,260.00
2019-05-28T08:42:05.794Z,260.00
2019-05-28T08:43:05.816Z,268.00
2019-05-28T08:44:05.840Z,272.00
2019-05-28T08:45:05.866Z,284.00
2019-05-28T08:46:05.892Z,288.00
2019-05-28T08:47:05.918Z,288.00
2019-05-28T08:48:05.959Z,280.00
2019-05-28T08:49:05.979Z,268.00
2019-05-28T08:50:06.033Z,248.00
2019-05-28T08:51:09.943Z,228.00
2019-05-28T08:52:06.052Z,224.00
2019-05-28T08:53:06.078Z,224.00
2019-05-28T08:54:06.109Z,220.00
2019-05-28T08:55:06.128Z,220.00
2019-05-28T08:56:06.156Z,220.00
2019-05-28T08:57:06.186Z,216.00
2019-05-28T08:58:06.257Z,212.00
2019-05-28T08:59:06.231Z,212.00
2019-05-28T09:00:06.298Z,208.00
2019-05-28T09:01:06.284Z,196.00
2019-05-28T09:02:06.311Z,196.00
2019-05-28T09:03:06.337Z,208.00
2019-05-28T09:04:06.363Z,216.00
2019-05-28T09:05:24.703Z,212.00
2019-05-28T09:06:06.416Z,228.00
2019-05-28T09:07:06.443Z,244.00
2019-05-28T09:08:06.471Z,252.00
2019-05-28T09:09:06.497Z,244.00
2019-05-28T09:10:06.609Z,248.00
2019-05-28T09:11:07.251Z,248.00
2019-05-28T09:12:09.569Z,252.00
2019-05-28T09:13:06.601Z,248.00
2019-05-28T09:14:06.671Z,244.00
2019-05-28T09:15:06.654Z,236.00
2019-05-28T09:16:06.676Z,220.00
2019-05-28T09:17:06.737Z,208.00
2019-05-28T09:18:06.780Z,204.00
2019-05-28T09:19:10.296Z,204.00
2019-05-28T09:20:06.783Z,200.00
2019-05-28T09:21:06.810Z,196.00
2019-05-28T09:22:06.834Z,196.00
2019-05-28T09:23:06.861Z,204.00
2019-05-28T09:24:06.887Z,196.00
2019-05-28T09:25:06.914Z,184.00
2019-05-28T09:26:06.941Z,184.00
2019-05-28T09:27:06.974Z,172.00
2019-05-28T09:28:06.994Z,152.00
2019-05-28T09:29:07.017Z,156.00
2019-05-28T09:30:07.044Z,168.00
2019-05-28T09:31:07.074Z,172.00
2019-05-28T09:32:07.096Z,168.00
2019-05-28T09:33:07.147Z,164.00
2019-05-28T09:34:07.148Z,168.00
2019-05-28T09:35:07.176Z,184.00
2019-05-28T09:36:09.156Z,200.00
2019-05-28T09:37:07.259Z,196.00
2019-05-28T09:38:07.255Z,200.00
2019-05-28T09:39:07.280Z,204.00
2019-05-28T09:40:07.307Z,208.00
2019-05-28T09:41:07.337Z,208.00
2019-05-28T09:42:07.358Z,208.00
2019-05-28T09:43:07.439Z,216.00
2019-05-28T09:44:07.411Z,236.00
2019-05-28T09:45:22.121Z,228.00
2019-05-28T09:46:07.465Z,236.00
2019-05-28T09:47:07.494Z,252.00
2019-05-28T09:48:07.517Z,248.00
2019-05-28T09:49:07.543Z,248.00
2019-05-28T09:50:27.026Z,264.00
2019-05-28T09:51:07.593Z,280.00
2019-05-28T09:52:07.621Z,300.00
2019-05-28T09:53:07.647Z,368.00
2019-05-28T09:54:07.673Z,340.00
2019-05-28T09:55:07.707Z,324.00
2019-05-28T09:56:07.725Z,316.00
2019-05-28T09:57:07.755Z,304.00
2019-05-28T09:58:07.777Z,284.00
2019-05-28T09:59:07.906Z,280.00
2019-05-28T10:00:07.834Z,284.00
2019-05-28T10:01:07.857Z,304.00
2019-05-28T10:02:07.930Z,312.00
2019-05-28T10:03:07.910Z,308.00
2019-05-28T10:04:07.939Z,308.00
2019-05-28T10:05:07.961Z,312.00
2019-05-28T10:06:16.787Z,304.00
2019-05-28T10:07:08.081Z,296.00
2019-05-28T10:08:08.048Z,352.00
2019-05-28T10:09:08.067Z,348.00
2019-05-28T10:10:08.096Z,308.00
2019-05-28T10:11:08.174Z,288.00
2019-05-28T10:12:08.186Z,340.00
2019-05-28T10:13:08.229Z,328.00
2019-05-28T10:14:08.196Z,232.00
2019-05-28T10:15:08.224Z,276.00
2019-05-28T10:16:08.261Z,228.00
2019-05-28T10:17:08.278Z,232.00
2019-05-28T10:18:08.341Z,228.00
2019-05-28T10:19:08.328Z,224.00
2019-05-28T10:20:08.355Z,208.00
2019-05-28T10:21:18.524Z,188.00
2019-05-28T10:22:08.409Z,172.00
2019-05-28T10:23:08.444Z,176.00
2019-05-28T10:24:08.461Z,164.00
2019-05-28T10:25:08.487Z,156.00
2019-05-28T10:26:08.511Z,168.00
2019-05-28T10:27:08.546Z,204.00
2019-05-28T10:28:08.619Z,236.00
2019-05-28T10:29:08.592Z,256.00
2019-05-28T10:30:08.624Z,276.00
2019-05-28T10:31:08.665Z,288.00
2019-05-28T10:32:08.668Z,288.00
2019-05-28T10:33:08.699Z,284.00
2019-05-28T10:34:08.720Z,276.00
2019-05-28T10:35:08.749Z,292.00
2019-05-28T10:36:08.834Z,296.00
2019-05-28T10:37:08.800Z,284.00
2019-05-28T10:38:14.898Z,280.00
2019-05-28T10:39:08.853Z,276.00
2019-05-28T10:40:08.882Z,264.00
2019-05-28T10:41:08.912Z,268.00
2019-05-28T10:42:08.935Z,264.00
2019-05-28T10:43:08.957Z,260.00
2019-05-28T10:44:08.985Z,256.00
2019-05-28T10:45:09.011Z,244.00
2019-05-28T10:46:09.050Z,224.00
2019-05-28T10:47:09.063Z,208.00
2019-05-28T10:48:09.091Z,192.00
2019-05-28T10:49:09.121Z,192.00
2019-05-28T10:50:09.142Z,204.00
2019-05-28T10:51:09.166Z,236.00
2019-05-28T10:52:09.196Z,256.00
2019-05-28T10:53:09.221Z,268.00
2019-05-28T10:54:09.244Z,276.00
2019-05-28T10:55:09.280Z,276.00
2019-05-28T10:56:09.385Z,272.00
2019-05-28T10:57:09.329Z,268.00
2019-05-28T10:58:09.350Z,264.00
2019-05-28T10:59:09.377Z,268.00
2019-05-28T11:00:09.405Z,632.00
2019-05-28T11:01:09.437Z,744.00
2019-05-28T11:02:09.455Z,264.00
2019-05-28T11:03:09.485Z,256.00
2019-05-28T11:04:09.543Z,244.00
2019-05-28T11:05:09.544Z,228.00
2019-05-28T11:06:09.560Z,224.00
2019-05-28T11:07:09.587Z,224.00
2019-05-28T11:08:09.614Z,220.00
2019-05-28T11:09:09.701Z,220.00
2019-05-28T11:10:22.969Z,224.00
2019-05-28T11:11:09.692Z,224.00
2019-05-28T11:12:09.719Z,228.00
2019-05-28T11:13:09.747Z,232.00
2019-05-28T11:14:09.770Z,232.00
2019-05-28T11:15:09.797Z,240.00
2019-05-28T11:16:09.830Z,240.00
2019-05-28T11:17:09.852Z,240.00
2019-05-28T11:18:09.877Z,240.00
2019-05-28T11:19:09.903Z,236.00
2019-05-28T11:20:09.927Z,236.00
2019-05-28T11:21:10.282Z,236.00
2019-05-28T11:22:09.981Z,232.00
2019-05-28T11:23:10.010Z,224.00
2019-05-28T11:24:10.033Z,224.00
2019-05-28T11:25:10.063Z,224.00
2019-05-28T11:26:10.141Z,232.00
2019-05-28T11:27:10.114Z,228.00
2019-05-28T11:28:10.137Z,224.00
2019-05-28T11:29:10.166Z,212.00
2019-05-28T11:30:10.195Z,196.00
2019-05-28T11:31:10.219Z,188.00
2019-05-28T11:32:10.244Z,176.00
2019-05-28T11:33:10.271Z,168.00
2019-05-28T11:34:10.295Z,160.00
2019-05-28T11:35:10.325Z,168.00
2019-05-28T11:36:10.347Z,172.00
2019-05-28T11:37:10.460Z,172.00
2019-05-28T11:38:10.413Z,184.00
2019-05-28T11:39:10.428Z,200.00
2019-05-28T11:40:11.278Z,216.00
2019-05-28T11:41:10.480Z,228.00
2019-05-28T11:42:10.504Z,232.00
2019-05-28T11:43:10.534Z,232.00
2019-05-28T11:44:10.558Z,228.00
2019-05-28T11:45:10.764Z,224.00
2019-05-28T11:46:10.614Z,220.00
2019-05-28T11:47:10.673Z,212.00
2019-05-28T11:48:10.694Z,204.00
2019-05-28T11:49:10.691Z,200.00
2019-05-28T11:50:10.715Z,196.00
2019-05-28T11:51:10.754Z,192.00
2019-05-28T11:52:10.807Z,196.00
2019-05-28T11:53:10.798Z,196.00
2019-05-28T11:54:10.877Z,204.00
2019-05-28T11:55:10.847Z,204.00
2019-05-28T11:56:10.878Z,212.00
2019-05-28T11:57:10.900Z,208.00
2019-05-28T11:58:10.925Z,204.00
2019-05-28T11:59:11.024Z,196.00
2019-05-28T12:00:11.015Z,192.00
2019-05-28T12:01:11.005Z,188.00
2019-05-28T12:02:11.082Z,184.00
2019-05-28T12:03:11.057Z,188.00
2019-05-28T12:04:11.084Z,196.00
2019-05-28T12:05:11.113Z,196.00
2019-05-28T12:06:11.179Z,196.00
2019-05-28T12:07:25.104Z,192.00
2019-05-28T12:08:11.196Z,192.00
2019-05-28T12:09:11.216Z,180.00
2019-05-28T12:10:11.239Z,172.00
2019-05-28T12:11:11.266Z,160.00
2019-05-28T12:12:11.297Z,156.00
2019-05-28T12:13:11.378Z,144.00
2019-05-28T12:14:11.343Z,140.00
2019-05-28T12:15:11.374Z,128.00
2019-05-28T12:16:11.409Z,120.00
2019-05-28T12:17:11.422Z,116.00
2019-05-28T12:18:11.454Z,108.00
2019-05-28T12:19:11.493Z,104.00
2019-05-28T12:20:12.073Z,104.00
2019-05-28T12:21:11.529Z,104.00
2019-05-28T12:22:11.553Z,112.00
2019-05-28T12:23:12.287Z,116.00
2019-05-28T12:24:11.609Z,128.00
2019-05-28T12:25:11.638Z,128.00
2019-05-28T12:26:11.662Z,132.00
2019-05-28T12:27:11.685Z,136.00
2019-05-28T12:28:11.761Z,140.00
2019-05-28T12:29:11.775Z,152.00
2019-05-28T12:30:11.763Z,164.00
2019-05-28T12:31:11.846Z,180.00
2019-05-28T12:32:11.841Z,196.00
2019-05-28T12:33:11.843Z,208.00
2019-05-28T12:34:11.876Z,220.00
2019-05-28T12:35:27.348Z,240.00
2019-05-28T12:36:11.924Z,244.00
2019-05-28T12:37:11.947Z,248.00
2019-05-28T12:38:11.974Z,248.00